sensor_id;sensor_type;location;lat;lon;timestamp;temperature;humidity
12254;DHT22;6189;52.526;13.390;2024-03-25T00:00:35;8.40;99.90
12254;DHT22;6189;52.526;13.390;2024-03-25T00:03:22;8.40;99.90
12254;DHT22;6189;52.526;13.390;2024-03-25T00:06:10;8.30;99.90
12254;DHT22;6189;52.526;13.390;2024-03-25T00:08:56;8.40;99.90
12254;DHT22;6189;52.526;13.390;2024-03-25T00:11:45;8.30;99.90
12254;DHT22;6189;52.526;13.390;2024-03-25T00:14:31;8.20;99.90
12254;DHT22;6189;52.526;13.390;2024-03-25T00:17:19;8.10;99.90
12254;DHT22;6189;52.526;13.390;2024-03-25T00:20:06;8.00;99.90
12254;DHT22;6189;52.526;13.390;2024-03-25T00:22:55;8.10;99.90
12254;DHT22;6189;52.526;13.390;2024-03-25T00:25:41;8.10;99.90
12254;DHT22;6189;52.526;13.390;2024-03-25T00:28:30;8.20;99.90
12254;DHT22;6189;52.526;13.390;2024-03-25T00:31:16;8.20;99.90
12254;DHT22;6189;52.526;13.390;2024-03-25T00:34:03;8.20;99.90
12254;DHT22;6189;52.526;13.390;2024-03-25T00:36:49;8.30;99.90
12254;DHT22;6189;52.526;13.390;2024-03-25T00:39:36;8.30;99.90
12254;DHT22;6189;52.526;13.390;2024-03-25T00:42:23;8.30;99.90
12254;DHT22;6189;52.526;13.390;2024-03-25T00:45:11;8.20;99.90
12254;DHT22;6189;52.526;13.390;2024-03-25T00:47:57;8.20;99.90
12254;DHT22;6189;52.526;13.390;2024-03-25T00:50:45;8.20;99.90
12254;DHT22;6189;52.526;13.390;2024-03-25T00:53:31;8.20;99.90
12254;DHT22;6189;52.526;13.390;2024-03-25T00:56:19;8.20;99.90
12254;DHT22;6189;52.526;13.390;2024-03-25T00:59:05;8.20;99.90
12254;DHT22;6189;52.526;13.390;2024-03-25T01:01:54;8.20;99.90
12254;DHT22;6189;52.526;13.390;2024-03-25T01:04:40;8.20;99.90
12254;DHT22;6189;52.526;13.390;2024-03-25T01:07:28;8.20;99.90
12254;DHT22;6189;52.526;13.390;2024-03-25T01:10:14;8.10;99.90
12254;DHT22;6189;52.526;13.390;2024-03-25T01:13:02;8.10;99.90
12254;DHT22;6189;52.526;13.390;2024-03-25T01:15:48;8.10;99.90
12254;DHT22;6189;52.526;13.390;2024-03-25T01:18:37;8.20;99.90
12254;DHT22;6189;52.526;13.390;2024-03-25T01:21:23;8.10;99.90
12254;DHT22;6189;52.526;13.390;2024-03-25T01:24:10;8.10;99.90
12254;DHT22;6189;52.526;13.390;2024-03-25T01:26:56;8.10;99.90
12254;DHT22;6189;52.526;13.390;2024-03-25T01:29:43;8.10;99.90
12254;DHT22;6189;52.526;13.390;2024-03-25T01:32:29;8.30;99.90
12254;DHT22;6189;52.526;13.390;2024-03-25T01:35:19;8.10;99.90
12254;DHT22;6189;52.526;13.390;2024-03-25T01:38:05;8.20;99.90
12254;DHT22;6189;52.526;13.390;2024-03-25T01:40:53;8.20;99.90
12254;DHT22;6189;52.526;13.390;2024-03-25T01:43:39;8.20;99.90
12254;DHT22;6189;52.526;13.390;2024-03-25T01:46:26;8.20;99.90
12254;DHT22;6189;52.526;13.390;2024-03-25T01:49:13;8.20;99.90
12254;DHT22;6189;52.526;13.390;2024-03-25T01:52:02;8.20;99.90
12254;DHT22;6189;52.526;13.390;2024-03-25T01:54:48;8.20;99.90
12254;DHT22;6189;52.526;13.390;2024-03-25T01:57:39;8.20;99.90
12254;DHT22;6189;52.526;13.390;2024-03-25T02:00:25;8.20;99.90
12254;DHT22;6189;52.526;13.390;2024-03-25T02:03:14;8.20;99.90
12254;DHT22;6189;52.526;13.390;2024-03-25T02:06:01;8.30;99.90
12254;DHT22;6189;52.526;13.390;2024-03-25T02:08:50;8.20;99.90
12254;DHT22;6189;52.526;13.390;2024-03-25T02:11:38;8.20;99.90
12254;DHT22;6189;52.526;13.390;2024-03-25T02:14:26;8.10;99.90
12254;DHT22;6189;52.526;13.390;2024-03-25T02:17:13;8.10;99.90
12254;DHT22;6189;52.526;13.390;2024-03-25T02:20:00;8.20;99.90
12254;DHT22;6189;52.526;13.390;2024-03-25T02:22:46;7.90;99.90
12254;DHT22;6189;52.526;13.390;2024-03-25T02:25:35;7.90;99.90
12254;DHT22;6189;52.526;13.390;2024-03-25T02:28:25;8.00;99.90
12254;DHT22;6189;52.526;13.390;2024-03-25T02:31:12;8.00;99.90
12254;DHT22;6189;52.526;13.390;2024-03-25T02:33:58;8.00;99.90
12254;DHT22;6189;52.526;13.390;2024-03-25T02:36:46;8.00;99.90
12254;DHT22;6189;52.526;13.390;2024-03-25T02:39:32;8.10;99.90
12254;DHT22;6189;52.526;13.390;2024-03-25T02:42:20;8.10;99.90
12254;DHT22;6189;52.526;13.390;2024-03-25T02:45:08;8.10;99.90
12254;DHT22;6189;52.526;13.390;2024-03-25T02:47:55;8.10;99.90
12254;DHT22;6189;52.526;13.390;2024-03-25T02:50:41;8.10;99.90
12254;DHT22;6189;52.526;13.390;2024-03-25T02:53:28;8.00;99.90
12254;DHT22;6189;52.526;13.390;2024-03-25T02:56:15;7.90;99.90
12254;DHT22;6189;52.526;13.390;2024-03-25T02:59:02;7.70;99.90
12254;DHT22;6189;52.526;13.390;2024-03-25T03:01:50;7.70;99.90
12254;DHT22;6189;52.526;13.390;2024-03-25T03:04:37;7.70;99.90
12254;DHT22;6189;52.526;13.390;2024-03-25T03:07:25;7.70;99.90
12254;DHT22;6189;52.526;13.390;2024-03-25T03:10:11;7.90;99.90
12254;DHT22;6189;52.526;13.390;2024-03-25T03:12:58;7.90;99.90
12254;DHT22;6189;52.526;13.390;2024-03-25T03:15:45;7.90;99.90
12254;DHT22;6189;52.526;13.390;2024-03-25T03:18:32;7.90;99.90
12254;DHT22;6189;52.526;13.390;2024-03-25T03:21:20;7.90;99.90
12254;DHT22;6189;52.526;13.390;2024-03-25T03:24:06;7.80;99.90
12254;DHT22;6189;52.526;13.390;2024-03-25T03:26:54;7.90;99.90
12254;DHT22;6189;52.526;13.390;2024-03-25T03:29:40;7.90;99.90
12254;DHT22;6189;52.526;13.390;2024-03-25T03:32:27;7.90;99.90
12254;DHT22;6189;52.526;13.390;2024-03-25T03:35:15;7.90;99.90
12254;DHT22;6189;52.526;13.390;2024-03-25T03:38:02;8.00;99.90
12254;DHT22;6189;52.526;13.390;2024-03-25T03:40:55;7.90;99.90
12254;DHT22;6189;52.526;13.390;2024-03-25T03:43:42;7.90;99.90
12254;DHT22;6189;52.526;13.390;2024-03-25T03:46:29;7.80;99.90
12254;DHT22;6189;52.526;13.390;2024-03-25T03:49:16;7.90;99.90
12254;DHT22;6189;52.526;13.390;2024-03-25T03:52:04;8.00;99.90
12254;DHT22;6189;52.526;13.390;2024-03-25T03:54:51;7.90;99.90
12254;DHT22;6189;52.526;13.390;2024-03-25T03:57:37;7.90;99.90
12254;DHT22;6189;52.526;13.390;2024-03-25T04:00:24;7.80;99.90
12254;DHT22;6189;52.526;13.390;2024-03-25T04:03:11;7.80;99.90
12254;DHT22;6189;52.526;13.390;2024-03-25T04:05:58;7.80;99.90
12254;DHT22;6189;52.526;13.390;2024-03-25T04:08:46;7.80;99.90
12254;DHT22;6189;52.526;13.390;2024-03-25T04:11:35;7.90;99.90
12254;DHT22;6189;52.526;13.390;2024-03-25T04:14:21;7.80;99.90
12254;DHT22;6189;52.526;13.390;2024-03-25T04:17:08;7.70;99.90
12254;DHT22;6189;52.526;13.390;2024-03-25T04:19:55;7.50;99.90
12254;DHT22;6189;52.526;13.390;2024-03-25T04:22:43;7.60;99.90
12254;DHT22;6189;52.526;13.390;2024-03-25T04:25:31;8.00;99.90
12254;DHT22;6189;52.526;13.390;2024-03-25T04:28:19;7.70;99.90
12254;DHT22;6189;52.526;13.390;2024-03-25T04:31:07;7.70;99.90
12254;DHT22;6189;52.526;13.390;2024-03-25T04:33:53;7.70;99.90
12254;DHT22;6189;52.526;13.390;2024-03-25T04:36:40;8.00;99.90
12254;DHT22;6189;52.526;13.390;2024-03-25T04:39:26;7.80;99.90
12254;DHT22;6189;52.526;13.390;2024-03-25T04:42:14;7.90;99.90
12254;DHT22;6189;52.526;13.390;2024-03-25T04:45:00;7.90;99.90
12254;DHT22;6189;52.526;13.390;2024-03-25T04:47:47;7.80;99.90
12254;DHT22;6189;52.526;13.390;2024-03-25T04:50:34;7.70;99.90
12254;DHT22;6189;52.526;13.390;2024-03-25T04:53:20;7.70;99.90
12254;DHT22;6189;52.526;13.390;2024-03-25T04:56:07;7.60;99.90
12254;DHT22;6189;52.526;13.390;2024-03-25T04:58:54;7.60;99.90
12254;DHT22;6189;52.526;13.390;2024-03-25T05:01:41;7.60;99.90
12254;DHT22;6189;52.526;13.390;2024-03-25T05:04:27;7.70;99.90
12254;DHT22;6189;52.526;13.390;2024-03-25T05:07:13;7.70;99.90
12254;DHT22;6189;52.526;13.390;2024-03-25T05:10:00;7.70;99.90
12254;DHT22;6189;52.526;13.390;2024-03-25T05:12:46;7.70;99.90
12254;DHT22;6189;52.526;13.390;2024-03-25T05:15:34;7.70;99.90
12254;DHT22;6189;52.526;13.390;2024-03-25T05:18:20;7.70;99.90
12254;DHT22;6189;52.526;13.390;2024-03-25T05:21:07;7.70;99.90
12254;DHT22;6189;52.526;13.390;2024-03-25T05:23:53;7.80;99.90
12254;DHT22;6189;52.526;13.390;2024-03-25T05:26:39;7.70;99.90
12254;DHT22;6189;52.526;13.390;2024-03-25T05:29:26;7.60;99.90
12254;DHT22;6189;52.526;13.390;2024-03-25T05:32:14;7.70;99.90
12254;DHT22;6189;52.526;13.390;2024-03-25T05:35:00;7.80;99.90
12254;DHT22;6189;52.526;13.390;2024-03-25T05:37:46;7.80;99.90
12254;DHT22;6189;52.526;13.390;2024-03-25T05:40:33;7.80;99.90
12254;DHT22;6189;52.526;13.390;2024-03-25T05:43:19;7.80;99.90
12254;DHT22;6189;52.526;13.390;2024-03-25T05:46:06;7.80;99.90
12254;DHT22;6189;52.526;13.390;2024-03-25T05:48:54;7.90;99.90
12254;DHT22;6189;52.526;13.390;2024-03-25T05:51:40;7.90;99.90
12254;DHT22;6189;52.526;13.390;2024-03-25T05:54:27;7.80;99.90
12254;DHT22;6189;52.526;13.390;2024-03-25T05:57:13;7.70;99.90
12254;DHT22;6189;52.526;13.390;2024-03-25T05:59:59;7.70;99.90
12254;DHT22;6189;52.526;13.390;2024-03-25T06:02:45;7.70;99.90
12254;DHT22;6189;52.526;13.390;2024-03-25T06:05:33;7.80;99.90
12254;DHT22;6189;52.526;13.390;2024-03-25T06:08:20;7.80;99.90
12254;DHT22;6189;52.526;13.390;2024-03-25T06:11:06;7.80;99.90
12254;DHT22;6189;52.526;13.390;2024-03-25T06:13:52;7.80;99.90
12254;DHT22;6189;52.526;13.390;2024-03-25T06:16:39;7.70;99.90
12254;DHT22;6189;52.526;13.390;2024-03-25T06:19:25;7.70;99.90
12254;DHT22;6189;52.526;13.390;2024-03-25T06:22:12;7.60;99.90
12254;DHT22;6189;52.526;13.390;2024-03-25T06:24:58;7.70;99.90
12254;DHT22;6189;52.526;13.390;2024-03-25T06:27:44;7.70;99.90
12254;DHT22;6189;52.526;13.390;2024-03-25T06:30:31;7.80;99.90
12254;DHT22;6189;52.526;13.390;2024-03-25T06:33:35;7.80;99.90
12254;DHT22;6189;52.526;13.390;2024-03-25T06:36:54;7.80;99.90
12254;DHT22;6189;52.526;13.390;2024-03-25T06:39:43;7.80;99.90
12254;DHT22;6189;52.526;13.390;2024-03-25T06:42:30;7.80;99.90
12254;DHT22;6189;52.526;13.390;2024-03-25T06:45:16;7.80;99.90
12254;DHT22;6189;52.526;13.390;2024-03-25T06:48:03;7.70;99.90
12254;DHT22;6189;52.526;13.390;2024-03-25T06:50:53;7.70;99.90
12254;DHT22;6189;52.526;13.390;2024-03-25T06:53:39;7.80;99.90
12254;DHT22;6189;52.526;13.390;2024-03-25T06:56:26;7.80;99.90
12254;DHT22;6189;52.526;13.390;2024-03-25T06:59:14;7.80;99.90
12254;DHT22;6189;52.526;13.390;2024-03-25T07:02:00;8.00;99.90
12254;DHT22;6189;52.526;13.390;2024-03-25T07:04:46;7.90;99.90
12254;DHT22;6189;52.526;13.390;2024-03-25T07:07:33;7.90;99.90
12254;DHT22;6189;52.526;13.390;2024-03-25T07:10:19;7.80;99.90
12254;DHT22;6189;52.526;13.390;2024-03-25T07:13:07;7.90;99.90
12254;DHT22;6189;52.526;13.390;2024-03-25T07:15:54;7.80;99.90
12254;DHT22;6189;52.526;13.390;2024-03-25T07:18:40;7.70;99.90
12254;DHT22;6189;52.526;13.390;2024-03-25T07:21:27;7.80;99.90
12254;DHT22;6189;52.526;13.390;2024-03-25T07:24:13;7.70;99.90
12254;DHT22;6189;52.526;13.390;2024-03-25T07:26:59;7.70;99.90
12254;DHT22;6189;52.526;13.390;2024-03-25T07:29:47;7.70;99.90
12254;DHT22;6189;52.526;13.390;2024-03-25T07:32:33;7.80;99.90
12254;DHT22;6189;52.526;13.390;2024-03-25T07:35:20;7.90;99.90
12254;DHT22;6189;52.526;13.390;2024-03-25T07:38:06;7.80;99.90
12254;DHT22;6189;52.526;13.390;2024-03-25T07:40:53;7.90;99.90
12254;DHT22;6189;52.526;13.390;2024-03-25T07:43:39;7.90;99.90
12254;DHT22;6189;52.526;13.390;2024-03-25T07:46:26;7.80;99.90
12254;DHT22;6189;52.526;13.390;2024-03-25T07:49:13;7.70;99.90
12254;DHT22;6189;52.526;13.390;2024-03-25T07:51:59;7.70;99.90
12254;DHT22;6189;52.526;13.390;2024-03-25T07:54:45;7.70;99.90
12254;DHT22;6189;52.526;13.390;2024-03-25T07:57:31;7.80;99.90
12254;DHT22;6189;52.526;13.390;2024-03-25T08:00:18;7.80;99.90
12254;DHT22;6189;52.526;13.390;2024-03-25T08:03:06;8.60;99.90
12254;DHT22;6189;52.526;13.390;2024-03-25T08:05:52;7.80;99.90
12254;DHT22;6189;52.526;13.390;2024-03-25T08:08:38;7.80;99.90
12254;DHT22;6189;52.526;13.390;2024-03-25T08:11:24;7.90;99.90
12254;DHT22;6189;52.526;13.390;2024-03-25T08:14:11;7.80;99.90
12254;DHT22;6189;52.526;13.390;2024-03-25T08:16:57;7.90;99.90
12254;DHT22;6189;52.526;13.390;2024-03-25T08:19:45;7.90;99.90
12254;DHT22;6189;52.526;13.390;2024-03-25T08:22:31;8.00;99.90
12254;DHT22;6189;52.526;13.390;2024-03-25T08:25:17;8.20;99.90
12254;DHT22;6189;52.526;13.390;2024-03-25T08:28:03;8.20;99.90
12254;DHT22;6189;52.526;13.390;2024-03-25T08:30:50;8.30;99.90
12254;DHT22;6189;52.526;13.390;2024-03-25T08:33:36;8.30;99.90
12254;DHT22;6189;52.526;13.390;2024-03-25T08:36:24;8.40;99.90
12254;DHT22;6189;52.526;13.390;2024-03-25T08:39:10;8.40;99.90
12254;DHT22;6189;52.526;13.390;2024-03-25T08:41:57;8.50;99.90
12254;DHT22;6189;52.526;13.390;2024-03-25T08:44:43;8.60;99.90
12254;DHT22;6189;52.526;13.390;2024-03-25T08:47:29;8.60;99.90
12254;DHT22;6189;52.526;13.390;2024-03-25T08:50:17;8.60;99.90
12254;DHT22;6189;52.526;13.390;2024-03-25T08:53:04;8.60;99.90
12254;DHT22;6189;52.526;13.390;2024-03-25T08:55:51;8.50;99.90
12254;DHT22;6189;52.526;13.390;2024-03-25T08:58:37;8.50;99.90
12254;DHT22;6189;52.526;13.390;2024-03-25T09:01:23;8.60;99.90
12254;DHT22;6189;52.526;13.390;2024-03-25T09:04:10;8.60;99.90
12254;DHT22;6189;52.526;13.390;2024-03-25T09:06:56;8.60;99.90
12254;DHT22;6189;52.526;13.390;2024-03-25T09:09:44;8.60;99.90
12254;DHT22;6189;52.526;13.390;2024-03-25T09:12:49;8.70;99.90
12254;DHT22;6189;52.526;13.390;2024-03-25T09:15:35;8.70;99.90
12254;DHT22;6189;52.526;13.390;2024-03-25T09:18:22;8.60;99.90
12254;DHT22;6189;52.526;13.390;2024-03-25T09:21:08;8.60;99.90
12254;DHT22;6189;52.526;13.390;2024-03-25T09:23:54;8.60;99.90
12254;DHT22;6189;52.526;13.390;2024-03-25T09:26:42;8.60;99.90
12254;DHT22;6189;52.526;13.390;2024-03-25T09:29:29;8.50;99.90
12254;DHT22;6189;52.526;13.390;2024-03-25T09:32:15;8.60;99.90
12254;DHT22;6189;52.526;13.390;2024-03-25T09:35:01;8.50;99.90
12254;DHT22;6189;52.526;13.390;2024-03-25T09:37:47;8.50;99.90
12254;DHT22;6189;52.526;13.390;2024-03-25T09:40:34;8.50;99.90
12254;DHT22;6189;52.526;13.390;2024-03-25T09:43:23;8.50;99.90
12254;DHT22;6189;52.526;13.390;2024-03-25T09:46:09;8.50;99.90
12254;DHT22;6189;52.526;13.390;2024-03-25T09:48:56;8.60;99.90
12254;DHT22;6189;52.526;13.390;2024-03-25T09:51:42;9.10;99.90
12254;DHT22;6189;52.526;13.390;2024-03-25T09:54:28;9.00;99.90
12254;DHT22;6189;52.526;13.390;2024-03-25T09:57:15;8.80;99.90
12254;DHT22;6189;52.526;13.390;2024-03-25T10:00:03;8.80;99.90
12254;DHT22;6189;52.526;13.390;2024-03-25T10:02:51;8.90;99.90
12254;DHT22;6189;52.526;13.390;2024-03-25T10:05:37;9.10;99.90
12254;DHT22;6189;52.526;13.390;2024-03-25T10:08:25;9.30;99.90
12254;DHT22;6189;52.526;13.390;2024-03-25T10:11:11;10.10;99.90
12254;DHT22;6189;52.526;13.390;2024-03-25T10:13:57;9.30;99.90
12254;DHT22;6189;52.526;13.390;2024-03-25T10:16:45;9.30;99.90
12254;DHT22;6189;52.526;13.390;2024-03-25T10:19:31;9.40;99.90
12254;DHT22;6189;52.526;13.390;2024-03-25T10:22:18;9.40;99.90
12254;DHT22;6189;52.526;13.390;2024-03-25T10:25:05;9.50;99.90
12254;DHT22;6189;52.526;13.390;2024-03-25T10:27:54;9.60;99.90
12254;DHT22;6189;52.526;13.390;2024-03-25T10:30:41;9.60;99.90
12254;DHT22;6189;52.526;13.390;2024-03-25T10:33:29;9.80;99.90
12254;DHT22;6189;52.526;13.390;2024-03-25T10:36:15;9.60;99.90
12254;DHT22;6189;52.526;13.390;2024-03-25T10:39:01;9.50;99.90
12254;DHT22;6189;52.526;13.390;2024-03-25T10:41:48;9.50;99.90
12254;DHT22;6189;52.526;13.390;2024-03-25T10:44:34;9.50;99.90
12254;DHT22;6189;52.526;13.390;2024-03-25T10:47:21;9.50;99.90
12254;DHT22;6189;52.526;13.390;2024-03-25T10:50:11;9.60;99.90
12254;DHT22;6189;52.526;13.390;2024-03-25T10:52:58;9.50;99.90
12254;DHT22;6189;52.526;13.390;2024-03-25T10:55:45;9.60;99.90
12254;DHT22;6189;52.526;13.390;2024-03-25T10:58:32;9.70;99.90
12254;DHT22;6189;52.526;13.390;2024-03-25T11:01:19;9.90;99.90
12254;DHT22;6189;52.526;13.390;2024-03-25T11:04:06;10.30;99.90
12254;DHT22;6189;52.526;13.390;2024-03-25T11:06:53;10.00;99.90
12254;DHT22;6189;52.526;13.390;2024-03-25T11:09:40;10.50;99.90
12254;DHT22;6189;52.526;13.390;2024-03-25T11:12:31;10.20;99.90
12254;DHT22;6189;52.526;13.390;2024-03-25T11:15:18;10.30;99.90
12254;DHT22;6189;52.526;13.390;2024-03-25T11:18:05;10.40;99.90
12254;DHT22;6189;52.526;13.390;2024-03-25T11:21:00;10.60;99.90
12254;DHT22;6189;52.526;13.390;2024-03-25T11:23:48;10.60;99.90
12254;DHT22;6189;52.526;13.390;2024-03-25T11:26:34;10.60;99.90
12254;DHT22;6189;52.526;13.390;2024-03-25T11:29:21;10.70;99.90
12254;DHT22;6189;52.526;13.390;2024-03-25T11:32:07;10.70;99.90
12254;DHT22;6189;52.526;13.390;2024-03-25T11:34:54;10.90;99.90
12254;DHT22;6189;52.526;13.390;2024-03-25T11:37:40;11.20;99.90
12254;DHT22;6189;52.526;13.390;2024-03-25T11:40:28;11.30;99.90
12254;DHT22;6189;52.526;13.390;2024-03-25T11:43:17;11.40;99.90
12254;DHT22;6189;52.526;13.390;2024-03-25T11:46:04;11.50;99.90
12254;DHT22;6189;52.526;13.390;2024-03-25T11:48:51;11.50;99.90
12254;DHT22;6189;52.526;13.390;2024-03-25T11:51:37;11.20;99.90
12254;DHT22;6189;52.526;13.390;2024-03-25T11:54:24;11.00;99.90
12254;DHT22;6189;52.526;13.390;2024-03-25T11:57:11;10.90;99.90
12254;DHT22;6189;52.526;13.390;2024-03-25T11:59:58;11.00;99.90
12254;DHT22;6189;52.526;13.390;2024-03-25T12:02:44;11.00;99.90
12254;DHT22;6189;52.526;13.390;2024-03-25T12:05:31;11.10;99.90
12254;DHT22;6189;52.526;13.390;2024-03-25T12:08:17;11.00;99.90
12254;DHT22;6189;52.526;13.390;2024-03-25T12:11:03;11.00;99.90
12254;DHT22;6189;52.526;13.390;2024-03-25T12:14:06;10.90;99.90
12254;DHT22;6189;52.526;13.390;2024-03-25T12:16:53;10.90;99.90
12254;DHT22;6189;52.526;13.390;2024-03-25T12:19:39;10.90;99.90
12254;DHT22;6189;52.526;13.390;2024-03-25T12:22:26;11.00;99.90
12254;DHT22;6189;52.526;13.390;2024-03-25T12:25:12;10.90;99.90
12254;DHT22;6189;52.526;13.390;2024-03-25T12:27:58;10.90;99.90
12254;DHT22;6189;52.526;13.390;2024-03-25T12:30:52;10.80;99.90
12254;DHT22;6189;52.526;13.390;2024-03-25T12:33:42;10.60;99.90
12254;DHT22;6189;52.526;13.390;2024-03-25T12:36:28;10.60;99.90
12254;DHT22;6189;52.526;13.390;2024-03-25T12:39:15;10.70;99.90
12254;DHT22;6189;52.526;13.390;2024-03-25T12:42:03;11.00;99.90
12254;DHT22;6189;52.526;13.390;2024-03-25T12:44:50;11.10;99.90
12254;DHT22;6189;52.526;13.390;2024-03-25T12:47:38;11.00;99.90
12254;DHT22;6189;52.526;13.390;2024-03-25T12:50:24;11.10;99.90
12254;DHT22;6189;52.526;13.390;2024-03-25T12:53:16;10.90;99.90
12254;DHT22;6189;52.526;13.390;2024-03-25T12:56:03;10.90;99.90
12254;DHT22;6189;52.526;13.390;2024-03-25T12:58:49;10.80;99.90
12254;DHT22;6189;52.526;13.390;2024-03-25T13:01:35;10.70;99.90
12254;DHT22;6189;52.526;13.390;2024-03-25T13:04:23;10.80;99.90
12254;DHT22;6189;52.526;13.390;2024-03-25T13:07:09;10.80;99.90
12254;DHT22;6189;52.526;13.390;2024-03-25T13:09:56;10.70;99.90
12254;DHT22;6189;52.526;13.390;2024-03-25T13:12:42;10.80;99.90
12254;DHT22;6189;52.526;13.390;2024-03-25T13:15:28;10.80;99.90
12254;DHT22;6189;52.526;13.390;2024-03-25T13:18:15;10.90;99.90
12254;DHT22;6189;52.526;13.390;2024-03-25T13:21:03;11.00;99.90
12254;DHT22;6189;52.526;13.390;2024-03-25T13:23:49;11.10;99.90
12254;DHT22;6189;52.526;13.390;2024-03-25T13:26:35;11.20;99.90
12254;DHT22;6189;52.526;13.390;2024-03-25T13:29:21;11.30;99.90
12254;DHT22;6189;52.526;13.390;2024-03-25T13:32:07;11.20;99.90
12254;DHT22;6189;52.526;13.390;2024-03-25T13:34:54;11.20;99.90
12254;DHT22;6189;52.526;13.390;2024-03-25T13:37:41;11.20;99.90
12254;DHT22;6189;52.526;13.390;2024-03-25T13:40:28;11.20;99.90
12254;DHT22;6189;52.526;13.390;2024-03-25T13:43:14;11.20;99.90
12254;DHT22;6189;52.526;13.390;2024-03-25T13:46:00;11.30;99.90
12254;DHT22;6189;52.526;13.390;2024-03-25T13:48:46;11.20;99.90
12254;DHT22;6189;52.526;13.390;2024-03-25T13:51:33;11.20;99.90
12254;DHT22;6189;52.526;13.390;2024-03-25T13:54:20;11.40;99.90
12254;DHT22;6189;52.526;13.390;2024-03-25T13:57:06;11.40;99.90
12254;DHT22;6189;52.526;13.390;2024-03-25T13:59:52;11.50;99.90
12254;DHT22;6189;52.526;13.390;2024-03-25T14:02:39;11.60;99.90
12254;DHT22;6189;52.526;13.390;2024-03-25T14:05:25;11.70;99.90
12254;DHT22;6189;52.526;13.390;2024-03-25T14:08:11;11.80;99.90
12254;DHT22;6189;52.526;13.390;2024-03-25T14:10:59;11.60;99.90
12254;DHT22;6189;52.526;13.390;2024-03-25T14:13:45;11.60;99.90
12254;DHT22;6189;52.526;13.390;2024-03-25T14:16:31;11.60;99.90
12254;DHT22;6189;52.526;13.390;2024-03-25T14:19:17;11.60;99.90
12254;DHT22;6189;52.526;13.390;2024-03-25T14:22:04;11.60;99.90
12254;DHT22;6189;52.526;13.390;2024-03-25T14:24:50;11.60;99.90
12254;DHT22;6189;52.526;13.390;2024-03-25T14:27:37;11.50;99.90
12254;DHT22;6189;52.526;13.390;2024-03-25T14:30:24;11.50;99.90
12254;DHT22;6189;52.526;13.390;2024-03-25T14:33:10;11.40;99.90
12254;DHT22;6189;52.526;13.390;2024-03-25T14:35:56;11.50;99.90
12254;DHT22;6189;52.526;13.390;2024-03-25T14:38:43;11.50;99.90
12254;DHT22;6189;52.526;13.390;2024-03-25T14:41:29;11.40;99.90
12254;DHT22;6189;52.526;13.390;2024-03-25T14:44:25;11.30;99.90
12254;DHT22;6189;52.526;13.390;2024-03-25T14:47:11;11.30;99.90
12254;DHT22;6189;52.526;13.390;2024-03-25T14:49:57;11.30;99.90
12254;DHT22;6189;52.526;13.390;2024-03-25T14:52:44;11.20;99.90
12254;DHT22;6189;52.526;13.390;2024-03-25T14:55:30;11.20;99.90
12254;DHT22;6189;52.526;13.390;2024-03-25T14:58:16;11.20;99.90
12254;DHT22;6189;52.526;13.390;2024-03-25T15:01:04;11.30;99.90
12254;DHT22;6189;52.526;13.390;2024-03-25T15:03:50;11.40;99.90
12254;DHT22;6189;52.526;13.390;2024-03-25T15:06:36;11.40;99.90
12254;DHT22;6189;52.526;13.390;2024-03-25T15:09:23;11.40;99.90
12254;DHT22;6189;52.526;13.390;2024-03-25T15:12:09;11.50;99.90
12254;DHT22;6189;52.526;13.390;2024-03-25T15:14:55;11.50;99.90
12254;DHT22;6189;52.526;13.390;2024-03-25T15:17:43;11.40;99.90
12254;DHT22;6189;52.526;13.390;2024-03-25T15:20:29;11.40;99.90
12254;DHT22;6189;52.526;13.390;2024-03-25T15:23:15;11.40;99.90
12254;DHT22;6189;52.526;13.390;2024-03-25T15:26:02;11.30;99.90
12254;DHT22;6189;52.526;13.390;2024-03-25T15:28:48;11.20;99.90
12254;DHT22;6189;52.526;13.390;2024-03-25T15:31:35;11.10;99.90
12254;DHT22;6189;52.526;13.390;2024-03-25T15:34:23;11.10;99.90
12254;DHT22;6189;52.526;13.390;2024-03-25T15:37:09;10.90;99.90
12254;DHT22;6189;52.526;13.390;2024-03-25T15:39:57;10.90;99.90
12254;DHT22;6189;52.526;13.390;2024-03-25T15:42:43;10.80;99.90
12254;DHT22;6189;52.526;13.390;2024-03-25T15:45:29;10.70;99.90
12254;DHT22;6189;52.526;13.390;2024-03-25T15:48:16;10.70;99.90
12254;DHT22;6189;52.526;13.390;2024-03-25T15:51:03;10.60;99.90
12254;DHT22;6189;52.526;13.390;2024-03-25T15:53:51;10.60;99.90
12254;DHT22;6189;52.526;13.390;2024-03-25T15:56:37;10.70;99.90
12254;DHT22;6189;52.526;13.390;2024-03-25T15:59:23;10.60;99.90
12254;DHT22;6189;52.526;13.390;2024-03-25T16:02:09;10.60;99.90
12254;DHT22;6189;52.526;13.390;2024-03-25T16:04:56;10.60;99.90
12254;DHT22;6189;52.526;13.390;2024-03-25T16:07:43;10.70;99.90
12254;DHT22;6189;52.526;13.390;2024-03-25T16:10:29;10.60;99.90
12254;DHT22;6189;52.526;13.390;2024-03-25T16:13:19;10.60;99.90
12254;DHT22;6189;52.526;13.390;2024-03-25T16:16:06;10.70;99.90
12254;DHT22;6189;52.526;13.390;2024-03-25T16:18:52;10.60;99.90
12254;DHT22;6189;52.526;13.390;2024-03-25T16:21:39;10.60;99.90
12254;DHT22;6189;52.526;13.390;2024-03-25T16:24:26;10.50;99.90
12254;DHT22;6189;52.526;13.390;2024-03-25T16:27:12;10.50;99.90
12254;DHT22;6189;52.526;13.390;2024-03-25T16:29:59;10.50;99.90
12254;DHT22;6189;52.526;13.390;2024-03-25T16:32:46;10.50;99.90
12254;DHT22;6189;52.526;13.390;2024-03-25T16:35:32;10.60;99.90
12254;DHT22;6189;52.526;13.390;2024-03-25T16:38:19;10.50;99.90
12254;DHT22;6189;52.526;13.390;2024-03-25T16:41:07;10.50;99.90
12254;DHT22;6189;52.526;13.390;2024-03-25T16:43:53;10.50;99.90
12254;DHT22;6189;52.526;13.390;2024-03-25T16:46:39;10.50;99.90
12254;DHT22;6189;52.526;13.390;2024-03-25T16:49:26;10.50;99.90
12254;DHT22;6189;52.526;13.390;2024-03-25T16:52:12;10.40;99.90
12254;DHT22;6189;52.526;13.390;2024-03-25T16:54:58;10.50;99.90
12254;DHT22;6189;52.526;13.390;2024-03-25T16:57:46;10.50;99.90
12254;DHT22;6189;52.526;13.390;2024-03-25T17:00:32;10.50;99.90
12254;DHT22;6189;52.526;13.390;2024-03-25T17:03:19;10.50;99.90
12254;DHT22;6189;52.526;13.390;2024-03-25T17:06:05;10.40;99.90
12254;DHT22;6189;52.526;13.390;2024-03-25T17:08:51;10.50;99.90
12254;DHT22;6189;52.526;13.390;2024-03-25T17:11:38;10.50;99.90
12254;DHT22;6189;52.526;13.390;2024-03-25T17:14:25;10.50;99.90
12254;DHT22;6189;52.526;13.390;2024-03-25T17:17:12;10.60;99.90
12254;DHT22;6189;52.526;13.390;2024-03-25T17:19:58;10.50;99.90
12254;DHT22;6189;52.526;13.390;2024-03-25T17:22:44;10.40;99.90
12254;DHT22;6189;52.526;13.390;2024-03-25T17:25:30;10.40;99.90
12254;DHT22;6189;52.526;13.390;2024-03-25T17:28:16;10.50;99.90
12254;DHT22;6189;52.526;13.390;2024-03-25T17:31:05;10.40;99.90
12254;DHT22;6189;52.526;13.390;2024-03-25T17:33:52;10.40;99.90
12254;DHT22;6189;52.526;13.390;2024-03-25T17:36:38;10.50;99.90
12254;DHT22;6189;52.526;13.390;2024-03-25T17:39:24;10.40;99.90
12254;DHT22;6189;52.526;13.390;2024-03-25T17:42:10;10.30;99.90
12254;DHT22;6189;52.526;13.390;2024-03-25T17:44:56;10.30;99.90